createdAt,value
2022-10-11T08:43:29.146Z,100628.06
2022-10-11T08:46:33.078Z,100593.06
2022-10-11T08:50:09.602Z,100625.72
2022-10-11T08:53:14.412Z,100626.56
2022-10-11T08:57:56.586Z,100619.69
2022-10-11T08:59:48.717Z,100619.88
2022-10-11T09:03:25.257Z,100603.88
2022-10-11T09:06:21.368Z,100599.81
2022-10-11T09:13:49.163Z,100602.72
2022-10-11T09:17:27.819Z,100603.41
2022-10-11T09:20:38.062Z,100591.19
2022-10-11T09:23:48.965Z,100594.72
2022-10-11T09:26:44.559Z,100578.69
2022-10-11T09:29:33.456Z,100581.75
2022-10-11T09:33:04.346Z,100595.72
2022-10-11T09:35:24.099Z,100558.47
2022-10-11T09:38:38.528Z,100568.84
2022-10-11T09:41:48.216Z,100579.03
2022-10-11T09:44:47.861Z,100549.47
2022-10-11T09:48:20.649Z,100563.06
2022-10-11T09:51:30.603Z,100525.78
2022-10-11T09:54:14.637Z,100568.56
2022-10-11T09:56:49.279Z,100574.44
2022-10-11T09:59:56.936Z,100512.66
2022-10-11T10:03:03.149Z,100528.91
2022-10-11T10:05:41.235Z,100539.84
2022-10-11T10:09:20.285Z,100545.03
2022-10-11T10:12:14.047Z,100531.47
2022-10-11T10:19:19.784Z,100544.13
2022-10-11T10:22:03.396Z,100519.69
2022-10-11T10:24:42.191Z,100525.28
2022-10-11T10:27:27.544Z,100537.63
2022-10-11T10:30:13.876Z,100526.16
2022-10-11T10:33:34.442Z,100520.53
2022-10-11T10:37:32.068Z,100501.72
2022-10-11T10:41:38.308Z,100519.81
2022-10-11T10:43:22.045Z,100483.59
2022-10-11T10:46:23.161Z,100514.25
2022-10-11T10:50:39.378Z,100520.84
2022-10-11T10:53:05.270Z,100512.41
2022-10-11T10:56:24.563Z,100511.91
2022-10-11T11:00:31.700Z,100507.09
2022-10-11T11:03:26.234Z,100489.94
2022-10-11T11:07:27.345Z,100462.34
2022-10-11T11:13:38.445Z,100488.69
2022-10-11T11:17:13.224Z,100476.38
2022-10-11T11:28:11.928Z,100466.53
2022-10-11T11:35:57.539Z,100451.09
2022-10-11T11:38:45.241Z,100457.66
2022-10-11T11:41:37.573Z,100443.81
2022-10-11T11:45:46.851Z,100420.16
2022-10-11T11:48:00.511Z,100448.28
2022-10-11T11:55:03.792Z,100444.84
2022-10-11T12:02:29.975Z,100409.41
2022-10-11T12:05:34.290Z,100422.97
2022-10-11T12:09:01.973Z,100435.72
2022-10-11T12:11:50.050Z,100400.25
2022-10-11T12:16:28.487Z,100427.28
2022-10-11T12:25:36.405Z,100406.56
2022-10-11T12:29:15.017Z,100421.91
2022-10-11T12:32:16.501Z,100411.59
2022-10-11T12:37:18.291Z,100413.59
2022-10-11T12:38:55.766Z,100390.13
2022-10-11T12:42:15.990Z,100385.78
2022-10-11T12:45:17.127Z,100404.31
2022-10-11T12:48:09.680Z,100412.25
2022-10-11T12:50:54.594Z,100408.13
2022-10-11T12:53:40.676Z,100404.44
2022-10-11T12:56:36.364Z,100403.94
2022-10-11T12:59:27.334Z,100393.84
2022-10-11T13:02:58.443Z,100383.72
2022-10-11T13:06:08.151Z,100403.38
2022-10-11T13:08:48.013Z,100369.06
2022-10-11T13:11:33.159Z,100377.66
2022-10-11T13:14:22.964Z,100385.44
2022-10-11T13:17:59.717Z,100385.34
2022-10-11T13:20:37.440Z,100370.47
2022-10-11T13:24:06.545Z,100351.06
2022-10-11T13:30:35.925Z,100357.13
2022-10-11T13:33:28.982Z,100370.63
2022-10-11T13:36:21.391Z,100362.66
2022-10-11T13:39:07.670Z,100343.59
2022-10-11T13:41:47.265Z,100379.78
2022-10-11T13:44:22.788Z,100356.69
2022-10-11T13:47:35.655Z,100372.38
2022-10-11T13:50:16.323Z,100381.53
2022-10-11T13:53:13.026Z,100391.59
2022-10-11T13:56:41.637Z,100389.13
2022-10-11T13:58:54.354Z,100355.72
2022-10-11T14:02:25.330Z,100378.19
2022-10-11T14:05:02.199Z,100358.72
2022-10-11T14:11:40.481Z,100382.13
2022-10-11T14:14:33.109Z,100383.16
2022-10-11T14:17:32.781Z,100346.25
2022-10-11T14:21:42.333Z,100383.81
2022-10-11T14:31:41.289Z,100351.91
2022-10-11T14:34:28.042Z,100361.88
2022-10-11T14:37:08.190Z,100338.72
2022-10-11T14:40:33.593Z,100343.69
2022-10-11T14:43:26.561Z,100351.13
2022-10-11T14:46:42.502Z,100365.19
2022-10-11T14:50:04.980Z,100347.53
2022-10-11T14:52:36.515Z,100403.22
2022-10-11T14:56:11.036Z,100387.50
2022-10-11T14:59:51.450Z,100395.28
2022-10-11T15:10:38.715Z,100351.34
2022-10-11T15:13:57.387Z,100384.88
2022-10-11T15:24:06.337Z,100393.63
2022-10-11T15:26:26.542Z,100385.78
2022-10-11T15:29:38.329Z,100361.00
2022-10-11T15:33:11.541Z,100357.03
2022-10-11T15:35:33.646Z,100364.13
2022-10-11T15:38:31.540Z,100391.81
2022-10-11T15:41:30.795Z,100383.56
2022-10-11T15:44:34.016Z,100359.63
2022-10-11T15:58:33.955Z,100379.59
2022-10-11T16:02:20.657Z,100386.25
2022-10-11T16:04:51.197Z,100367.00
2022-10-11T16:08:38.822Z,100416.06
2022-10-11T16:11:20.544Z,100373.31
2022-10-11T16:13:49.109Z,100362.59
2022-10-11T16:16:16.341Z,100383.28
2022-10-11T16:18:43.779Z,100384.19
2022-10-11T16:21:15.751Z,100403.03
2022-10-11T16:23:43.535Z,100373.06
2022-10-11T16:26:14.127Z,100362.41
2022-10-11T16:28:43.354Z,100399.84
2022-10-11T16:31:18.504Z,100371.94
2022-10-11T16:33:46.426Z,100430.56
2022-10-11T16:36:34.924Z,100367.13
2022-10-11T16:39:09.345Z,100361.25
2022-10-11T16:41:37.268Z,100368.97
2022-10-11T16:44:06.069Z,100378.38
2022-10-11T16:46:34.446Z,100370.16
2022-10-11T16:49:03.736Z,100384.38
2022-10-11T16:51:31.551Z,100364.91
2022-10-11T16:54:00.094Z,100378.72
2022-10-11T16:56:39.906Z,100376.44
2022-10-11T16:59:15.926Z,100372.97
2022-10-11T17:01:43.403Z,100393.03
2022-10-11T17:04:12.375Z,100382.47
2022-10-11T17:06:44.183Z,100363.56
2022-10-11T17:09:11.732Z,100379.94
2022-10-11T17:11:41.652Z,100368.94
2022-10-11T17:14:24.942Z,100371.19
2022-10-11T17:16:54.635Z,100366.78
2022-10-11T17:19:25.329Z,100338.56
2022-10-11T17:21:53.714Z,100368.34
2022-10-11T17:24:22.593Z,100369.84
2022-10-11T17:26:53.489Z,100357.88
2022-10-11T17:29:32.249Z,100370.50
2022-10-11T17:32:00.091Z,100334.03
2022-10-11T17:34:38.858Z,100361.44
2022-10-11T17:37:12.560Z,100321.66
2022-10-11T17:39:41.236Z,100383.41
2022-10-11T17:42:16.757Z,100336.25
2022-10-11T17:44:44.289Z,100344.94
2022-10-11T17:47:19.254Z,100373.19
2022-10-11T17:49:46.787Z,100335.09
2022-10-11T17:52:22.597Z,100344.78
2022-10-11T17:54:57.183Z,100324.88
2022-10-11T17:57:27.934Z,100317.97
2022-10-11T17:59:55.383Z,100343.50
2022-10-11T18:02:27.002Z,100358.31
2022-10-11T18:05:14.883Z,100340.56
2022-10-11T18:07:42.895Z,100349.28
2022-10-11T18:10:12.484Z,100313.47
2022-10-11T18:12:42.126Z,100311.91
2022-10-11T18:15:12.825Z,100350.84
2022-10-11T18:17:49.654Z,100346.94
2022-10-11T18:20:25.521Z,100353.81
2022-10-11T18:22:56.262Z,100318.00
2022-10-11T18:25:32.688Z,100320.63
2022-10-11T18:28:00.417Z,100333.25
2022-10-11T18:30:30.121Z,100311.22
2022-10-11T18:32:59.638Z,100312.00
2022-10-11T18:35:29.623Z,100309.72
2022-10-11T18:38:01.050Z,100331.41
2022-10-11T18:40:28.759Z,100338.28
2022-10-11T18:42:56.495Z,100334.16
2022-10-11T18:45:26.094Z,100321.66
2022-10-11T18:47:54.673Z,100344.56
2022-10-11T18:50:25.263Z,100300.53
2022-10-11T18:52:52.586Z,100334.06
2022-10-11T18:55:21.608Z,100311.34
2022-10-11T18:57:56.513Z,100322.13
2022-10-11T19:00:40.815Z,100303.47
2022-10-11T19:03:09.926Z,100297.78
2022-10-11T19:05:39.912Z,100293.53
2022-10-11T19:08:08.532Z,100336.22
2022-10-11T19:10:43.350Z,100322.91
2022-10-11T19:13:19.203Z,100292.75
2022-10-11T19:15:47.032Z,100302.31
2022-10-11T19:18:20.372Z,100289.47
2022-10-11T19:20:51.321Z,100286.22
2022-10-11T19:26:24.828Z,100297.94
2022-10-11T19:29:32.085Z,100272.66
2022-10-11T19:32:33.980Z,100307.81
2022-10-11T19:35:54.522Z,100288.16
2022-10-11T19:39:55.803Z,100313.84
2022-10-11T19:42:57.865Z,100282.88
2022-10-11T19:45:56.517Z,100306.25
2022-10-11T19:49:24.770Z,100327.97
2022-10-11T19:52:44.884Z,100287.97
2022-10-11T19:55:21.073Z,100286.41
2022-10-11T19:58:57.431Z,100327.56
2022-10-11T20:01:41.418Z,100291.19
2022-10-11T20:04:52.534Z,100292.22
2022-10-11T20:07:31.819Z,100286.44
2022-10-11T20:10:22.584Z,100279.91
2022-10-11T20:13:14.279Z,100317.53
2022-10-11T20:15:57.629Z,100315.47
2022-10-11T20:19:04.408Z,100327.19
2022-10-11T20:21:40.897Z,100299.97
2022-10-11T20:25:07.422Z,100269.19
2022-10-11T20:28:17.979Z,100313.47
2022-10-11T20:30:58.643Z,100307.53
2022-10-11T20:34:40.423Z,100279.63
2022-10-11T20:36:49.406Z,100313.13
2022-10-11T20:39:35.824Z,100288.47
2022-10-11T20:43:01.116Z,100283.88
2022-10-11T20:45:36.967Z,100269.06
2022-10-11T20:48:16.888Z,100287.03
2022-10-11T20:50:52.751Z,100293.38
2022-10-11T20:53:37.451Z,100280.31
2022-10-11T20:56:41.466Z,100297.88
2022-10-11T20:59:22.982Z,100278.69
2022-10-11T21:02:01.704Z,100272.63
2022-10-11T21:05:23.994Z,100277.69
2022-10-11T21:08:21.734Z,100279.44
2022-10-11T21:11:49.376Z,100250.44
2022-10-11T21:14:16.269Z,100280.38
2022-10-11T21:17:05.149Z,100263.78
2022-10-11T21:19:42.674Z,100271.69
2022-10-11T21:22:26.829Z,100280.31
2022-10-11T21:25:02.055Z,100243.66
2022-10-11T21:28:30.132Z,100281.09
2022-10-11T21:31:35.128Z,100266.75
2022-10-11T21:34:19.485Z,100260.44
2022-10-11T21:37:55.859Z,100250.84
2022-10-11T21:40:18.943Z,100265.78
2022-10-11T21:43:06.230Z,100261.91
2022-10-11T21:45:49.192Z,100237.69
2022-10-11T21:48:33.754Z,100239.28
2022-10-11T21:54:32.106Z,100268.41
2022-10-11T21:57:57.671Z,100238.22
2022-10-11T22:00:31.829Z,100253.13
2022-10-11T22:03:15.421Z,100260.00
2022-10-11T22:09:37.412Z,100253.13
2022-10-11T22:12:26.778Z,100264.16
2022-10-11T22:15:31.121Z,100231.16
2022-10-11T22:18:10.302Z,100241.25
2022-10-11T22:20:49.352Z,100235.28
2022-10-11T22:23:42.977Z,100267.09
2022-10-11T22:26:59.713Z,100250.66
2022-10-11T22:30:13.891Z,100264.66
2022-10-11T22:33:16.529Z,100247.56
2022-10-11T22:37:39.526Z,100238.72
2022-10-11T22:40:08.457Z,100259.31
2022-10-11T22:43:07.123Z,100245.34
2022-10-11T22:46:04.734Z,100242.94
2022-10-11T22:48:46.842Z,100216.47
2022-10-11T22:51:36.826Z,100233.97
2022-10-11T22:54:19.303Z,100219.22
2022-10-11T22:57:16.182Z,100268.97
2022-10-11T23:00:02.894Z,100254.00
2022-10-11T23:02:47.303Z,100232.72
2022-10-11T23:05:19.932Z,100220.63
2022-10-11T23:07:58.840Z,100259.78
2022-10-11T23:10:51.316Z,100218.03
2022-10-11T23:13:24.686Z,100250.88
2022-10-11T23:16:00.135Z,100230.53
2022-10-11T23:18:53.989Z,100244.34
2022-10-11T23:21:57.243Z,100257.09
2022-10-11T23:24:34.193Z,100223.72
2022-10-11T23:27:21.306Z,100213.34
2022-10-11T23:30:21.518Z,100216.03
2022-10-11T23:33:20.947Z,100230.44
2022-10-11T23:36:49.210Z,100223.72
2022-10-11T23:39:17.305Z,100237.22
2022-10-11T23:41:47.900Z,100218.97
2022-10-11T23:44:25.035Z,100215.16
2022-10-11T23:46:53.190Z,100211.53
2022-10-11T23:49:27.068Z,100238.63
2022-10-11T23:51:58.758Z,100217.53
2022-10-11T23:54:30.681Z,100190.44
2022-10-11T23:57:33.583Z,100234.69
